sensor_id;sensor_type;location;lat;lon;timestamp;temperature;humidity
54516;DHT22;40422;45.892;4.738;2023-02-07T04:00:53;2.70;99.90
54516;DHT22;40422;45.892;4.738;2023-02-07T04:03:19;2.70;99.90
54516;DHT22;40422;45.892;4.738;2023-02-07T04:05:44;2.70;99.90
54516;DHT22;40422;45.892;4.738;2023-02-07T04:08:10;2.80;99.90
54516;DHT22;40422;45.892;4.738;2023-02-07T04:10:36;2.70;99.90
54516;DHT22;40422;45.892;4.738;2023-02-07T04:13:02;2.70;99.90
54516;DHT22;40422;45.892;4.738;2023-02-07T04:15:27;2.70;99.90
54516;DHT22;40422;45.892;4.738;2023-02-07T04:17:53;2.70;99.90
54516;DHT22;40422;45.892;4.738;2023-02-07T04:20:19;2.70;99.90
54516;DHT22;40422;45.892;4.738;2023-02-07T04:22:44;2.70;99.90
54516;DHT22;40422;45.892;4.738;2023-02-07T04:25:10;2.60;99.90
54516;DHT22;40422;45.892;4.738;2023-02-07T04:27:36;2.60;99.90
54516;DHT22;40422;45.892;4.738;2023-02-07T04:30:01;2.60;99.90
54516;DHT22;40422;45.892;4.738;2023-02-07T04:32:27;2.60;99.90
54516;DHT22;40422;45.892;4.738;2023-02-07T04:34:53;2.70;99.90
54516;DHT22;40422;45.892;4.738;2023-02-07T04:37:18;2.70;99.90
54516;DHT22;40422;45.892;4.738;2023-02-07T04:39:44;2.70;99.90
54516;DHT22;40422;45.892;4.738;2023-02-07T04:42:10;2.70;99.90
54516;DHT22;40422;45.892;4.738;2023-02-07T04:44:36;2.70;99.90
54516;DHT22;40422;45.892;4.738;2023-02-07T04:47:01;2.60;99.90
54516;DHT22;40422;45.892;4.738;2023-02-07T04:49:27;2.60;99.90
54516;DHT22;40422;45.892;4.738;2023-02-07T04:51:52;2.50;99.90
54516;DHT22;40422;45.892;4.738;2023-02-07T04:54:18;2.50;99.90
54516;DHT22;40422;45.892;4.738;2023-02-07T04:56:43;2.50;99.90
54516;DHT22;40422;45.892;4.738;2023-02-07T04:59:09;2.40;99.90
54516;DHT22;40422;45.892;4.738;2023-02-07T05:01:35;2.40;99.90
54516;DHT22;40422;45.892;4.738;2023-02-07T05:04:00;2.50;99.90
54516;DHT22;40422;45.892;4.738;2023-02-07T05:06:26;2.50;99.90
54516;DHT22;40422;45.892;4.738;2023-02-07T05:08:51;2.50;99.90
54516;DHT22;40422;45.892;4.738;2023-02-07T05:11:17;2.50;99.90
54516;DHT22;40422;45.892;4.738;2023-02-07T05:13:43;2.50;99.90
54516;DHT22;40422;45.892;4.738;2023-02-07T05:16:09;2.60;99.90
54516;DHT22;40422;45.892;4.738;2023-02-07T05:18:35;2.60;99.90
54516;DHT22;40422;45.892;4.738;2023-02-07T05:21:01;2.60;99.90
54516;DHT22;40422;45.892;4.738;2023-02-07T05:23:26;2.60;99.90
54516;DHT22;40422;45.892;4.738;2023-02-07T05:25:52;2.60;99.90
54516;DHT22;40422;45.892;4.738;2023-02-07T05:28:17;2.60;99.90
54516;DHT22;40422;45.892;4.738;2023-02-07T05:30:43;2.60;99.90
54516;DHT22;40422;45.892;4.738;2023-02-07T05:33:10;2.60;99.90
54516;DHT22;40422;45.892;4.738;2023-02-07T05:35:38;2.60;99.90
54516;DHT22;40422;45.892;4.738;2023-02-07T05:38:07;2.60;99.90
54516;DHT22;40422;45.892;4.738;2023-02-07T05:40:37;2.60;99.90
54516;DHT22;40422;45.892;4.738;2023-02-07T05:43:03;2.60;99.90
54516;DHT22;40422;45.892;4.738;2023-02-07T05:45:29;2.60;99.90
54516;DHT22;40422;45.892;4.738;2023-02-07T05:47:55;2.60;99.90
54516;DHT22;40422;45.892;4.738;2023-02-07T05:50:20;2.60;99.90
54516;DHT22;40422;45.892;4.738;2023-02-07T05:52:46;2.70;99.90
54516;DHT22;40422;45.892;4.738;2023-02-07T05:55:12;2.70;99.90
54516;DHT22;40422;45.892;4.738;2023-02-07T05:57:39;2.70;99.90
54516;DHT22;40422;45.892;4.738;2023-02-07T06:00:06;2.70;99.90
54516;DHT22;40422;45.892;4.738;2023-02-07T06:02:32;2.80;99.90
54516;DHT22;40422;45.892;4.738;2023-02-07T06:04:57;2.80;99.90
54516;DHT22;40422;45.892;4.738;2023-02-07T06:07:23;2.80;99.90
54516;DHT22;40422;45.892;4.738;2023-02-07T06:09:48;2.80;99.90
54516;DHT22;40422;45.892;4.738;2023-02-07T06:12:14;2.80;99.90
54516;DHT22;40422;45.892;4.738;2023-02-07T06:14:40;2.80;99.90
54516;DHT22;40422;45.892;4.738;2023-02-07T06:17:05;2.70;99.90
54516;DHT22;40422;45.892;4.738;2023-02-07T06:19:31;2.70;99.90
54516;DHT22;40422;45.892;4.738;2023-02-07T06:21:57;2.70;99.90
54516;DHT22;40422;45.892;4.738;2023-02-07T06:24:22;2.60;99.90
54516;DHT22;40422;45.892;4.738;2023-02-07T06:26:48;2.60;99.90
54516;DHT22;40422;45.892;4.738;2023-02-07T06:29:14;2.50;99.90
54516;DHT22;40422;45.892;4.738;2023-02-07T06:31:39;2.50;99.90
54516;DHT22;40422;45.892;4.738;2023-02-07T06:34:05;2.50;99.90
54516;DHT22;40422;45.892;4.738;2023-02-07T06:36:31;2.50;99.90
54516;DHT22;40422;45.892;4.738;2023-02-07T06:38:56;2.40;99.90
54516;DHT22;40422;45.892;4.738;2023-02-07T06:41:22;2.40;99.90
54516;DHT22;40422;45.892;4.738;2023-02-07T06:43:48;2.40;99.90
54516;DHT22;40422;45.892;4.738;2023-02-07T06:46:13;2.40;99.90
54516;DHT22;40422;45.892;4.738;2023-02-07T06:48:39;2.30;99.90
54516;DHT22;40422;45.892;4.738;2023-02-07T06:51:05;2.40;99.90
54516;DHT22;40422;45.892;4.738;2023-02-07T06:53:30;2.40;99.90
54516;DHT22;40422;45.892;4.738;2023-02-07T06:55:56;2.40;99.90
54516;DHT22;40422;45.892;4.738;2023-02-07T06:58:22;2.40;99.90
54516;DHT22;40422;45.892;4.738;2023-02-07T07:00:48;2.40;99.90
54516;DHT22;40422;45.892;4.738;2023-02-07T07:03:14;2.40;99.90
54516;DHT22;40422;45.892;4.738;2023-02-07T07:05:40;2.40;99.90
54516;DHT22;40422;45.892;4.738;2023-02-07T07:08:07;2.40;99.90
54516;DHT22;40422;45.892;4.738;2023-02-07T07:10:32;2.40;99.90
54516;DHT22;40422;45.892;4.738;2023-02-07T07:12:58;2.40;99.90
54516;DHT22;40422;45.892;4.738;2023-02-07T07:15:23;2.50;99.90
54516;DHT22;40422;45.892;4.738;2023-02-07T07:17:49;2.50;99.90
54516;DHT22;40422;45.892;4.738;2023-02-07T07:20:15;2.50;99.90
54516;DHT22;40422;45.892;4.738;2023-02-07T07:22:42;2.60;99.90
54516;DHT22;40422;45.892;4.738;2023-02-07T07:25:09;2.60;99.90
54516;DHT22;40422;45.892;4.738;2023-02-07T07:27:34;2.70;99.90
54516;DHT22;40422;45.892;4.738;2023-02-07T07:30:00;2.80;99.90
54516;DHT22;40422;45.892;4.738;2023-02-07T07:32:25;2.90;99.90
54516;DHT22;40422;45.892;4.738;2023-02-07T07:34:51;3.20;99.90
54516;DHT22;40422;45.892;4.738;2023-02-07T07:37:19;3.40;99.90
54516;DHT22;40422;45.892;4.738;2023-02-07T07:39:44;3.50;99.90
54516;DHT22;40422;45.892;4.738;2023-02-07T07:42:10;3.50;99.90
54516;DHT22;40422;45.892;4.738;2023-02-07T07:44:36;3.50;99.90
54516;DHT22;40422;45.892;4.738;2023-02-07T07:47:01;3.40;99.90
54516;DHT22;40422;45.892;4.738;2023-02-07T07:49:27;3.30;99.90
54516;DHT22;40422;45.892;4.738;2023-02-07T07:51:53;3.20;99.90
54516;DHT22;40422;45.892;4.738;2023-02-07T07:54:18;3.20;99.90
54516;DHT22;40422;45.892;4.738;2023-02-07T07:56:44;3.20;99.90
54516;DHT22;40422;45.892;4.738;2023-02-07T07:59:10;3.20;99.90
54516;DHT22;40422;45.892;4.738;2023-02-07T08:01:35;3.20;99.90
54516;DHT22;40422;45.892;4.738;2023-02-07T08:04:01;3.30;99.90
54516;DHT22;40422;45.892;4.738;2023-02-07T08:06:30;3.30;99.90
54516;DHT22;40422;45.892;4.738;2023-02-07T08:08:55;3.30;99.90
54516;DHT22;40422;45.892;4.738;2023-02-07T08:11:21;3.20;99.90
54516;DHT22;40422;45.892;4.738;2023-02-07T08:13:48;3.30;99.90
54516;DHT22;40422;45.892;4.738;2023-02-07T08:16:14;3.30;99.90
54516;DHT22;40422;45.892;4.738;2023-02-07T08:18:40;3.50;99.90
54516;DHT22;40422;45.892;4.738;2023-02-07T08:21:06;3.60;99.90
54516;DHT22;40422;45.892;4.738;2023-02-07T08:23:32;3.60;99.90
54516;DHT22;40422;45.892;4.738;2023-02-07T08:25:58;3.70;99.90
54516;DHT22;40422;45.892;4.738;2023-02-07T08:28:24;3.80;99.90
54516;DHT22;40422;45.892;4.738;2023-02-07T08:30:50;3.70;99.90
54516;DHT22;40422;45.892;4.738;2023-02-07T08:33:16;3.50;99.90
54516;DHT22;40422;45.892;4.738;2023-02-07T08:35:42;3.40;99.90
54516;DHT22;40422;45.892;4.738;2023-02-07T08:38:07;3.40;99.90
54516;DHT22;40422;45.892;4.738;2023-02-07T08:40:33;3.30;99.90
54516;DHT22;40422;45.892;4.738;2023-02-07T08:42:59;3.30;99.90
54516;DHT22;40422;45.892;4.738;2023-02-07T08:45:25;3.20;99.90
54516;DHT22;40422;45.892;4.738;2023-02-07T08:47:51;3.20;99.90
54516;DHT22;40422;45.892;4.738;2023-02-07T08:50:17;3.20;99.90
54516;DHT22;40422;45.892;4.738;2023-02-07T08:52:43;3.30;99.90
54516;DHT22;40422;45.892;4.738;2023-02-07T08:55:09;3.40;99.90
54516;DHT22;40422;45.892;4.738;2023-02-07T08:57:36;3.60;99.90
54516;DHT22;40422;45.892;4.738;2023-02-07T09:00:03;3.60;99.90
54516;DHT22;40422;45.892;4.738;2023-02-07T09:02:29;3.70;99.90
54516;DHT22;40422;45.892;4.738;2023-02-07T09:04:55;3.90;99.90
54516;DHT22;40422;45.892;4.738;2023-02-07T09:07:20;4.00;99.90
54516;DHT22;40422;45.892;4.738;2023-02-07T09:09:46;4.00;99.90
54516;DHT22;40422;45.892;4.738;2023-02-07T09:12:12;4.00;99.90
54516;DHT22;40422;45.892;4.738;2023-02-07T09:14:39;4.10;99.90
54516;DHT22;40422;45.892;4.738;2023-02-07T09:17:05;4.10;99.90
54516;DHT22;40422;45.892;4.738;2023-02-07T09:19:32;4.20;99.90
54516;DHT22;40422;45.892;4.738;2023-02-07T09:21:58;4.20;99.90
54516;DHT22;40422;45.892;4.738;2023-02-07T09:24:23;4.30;99.90
54516;DHT22;40422;45.892;4.738;2023-02-07T09:26:49;4.70;99.90
54516;DHT22;40422;45.892;4.738;2023-02-07T09:29:15;5.00;99.90
54516;DHT22;40422;45.892;4.738;2023-02-07T09:31:41;5.20;99.90
54516;DHT22;40422;45.892;4.738;2023-02-07T09:34:07;5.50;99.90
54516;DHT22;40422;45.892;4.738;2023-02-07T09:36:33;5.60;99.90
54516;DHT22;40422;45.892;4.738;2023-02-07T09:39:00;5.60;99.90
54516;DHT22;40422;45.892;4.738;2023-02-07T09:47:09;6.00;99.90
54516;DHT22;40422;45.892;4.738;2023-02-07T09:49:40;6.10;99.90
54516;DHT22;40422;45.892;4.738;2023-02-07T09:52:19;5.80;99.90
54516;DHT22;40422;45.892;4.738;2023-02-07T09:54:50;5.70;99.90
54516;DHT22;40422;45.892;4.738;2023-02-07T09:57:20;5.80;99.90
54516;DHT22;40422;45.892;4.738;2023-02-07T09:59:57;6.00;99.90
54516;DHT22;40422;45.892;4.738;2023-02-07T10:02:35;6.30;99.90
54516;DHT22;40422;45.892;4.738;2023-02-07T10:05:13;6.50;99.90
54516;DHT22;40422;45.892;4.738;2023-02-07T10:07:42;6.70;99.90
54516;DHT22;40422;45.892;4.738;2023-02-07T10:10:30;6.80;99.90
54516;DHT22;40422;45.892;4.738;2023-02-07T10:13:18;7.10;99.90
54516;DHT22;40422;45.892;4.738;2023-02-07T10:18:37;7.60;99.90
54516;DHT22;40422;45.892;4.738;2023-02-07T10:26:52;7.50;99.90
54516;DHT22;40422;45.892;4.738;2023-02-07T10:32:11;7.50;99.90
54516;DHT22;40422;45.892;4.738;2023-02-07T10:34:43;7.60;99.90
54516;DHT22;40422;45.892;4.738;2023-02-07T10:37:18;7.60;99.90
54516;DHT22;40422;45.892;4.738;2023-02-07T10:39:52;7.60;99.90
54516;DHT22;40422;45.892;4.738;2023-02-07T10:42:19;7.70;99.90
54516;DHT22;40422;45.892;4.738;2023-02-07T10:44:45;7.90;99.90
54516;DHT22;40422;45.892;4.738;2023-02-07T10:47:16;7.90;99.90
54516;DHT22;40422;45.892;4.738;2023-02-07T10:49:46;8.00;99.90
54516;DHT22;40422;45.892;4.738;2023-02-07T10:52:19;8.10;99.90
54516;DHT22;40422;45.892;4.738;2023-02-07T10:54:52;8.20;99.90
54516;DHT22;40422;45.892;4.738;2023-02-07T10:57:19;8.30;99.90
54516;DHT22;40422;45.892;4.738;2023-02-07T10:59:45;8.40;99.90
54516;DHT22;40422;45.892;4.738;2023-02-07T11:10:23;8.60;98.90
54516;DHT22;40422;45.892;4.738;2023-02-07T11:12:54;8.80;98.80
54516;DHT22;40422;45.892;4.738;2023-02-07T11:15:30;8.60;98.90
54516;DHT22;40422;45.892;4.738;2023-02-07T11:17:58;8.60;99.40
54516;DHT22;40422;45.892;4.738;2023-02-07T11:20:28;8.80;98.90
54516;DHT22;40422;45.892;4.738;2023-02-07T11:22:56;8.60;98.10
54516;DHT22;40422;45.892;4.738;2023-02-07T11:25:36;8.70;98.70
54516;DHT22;40422;45.892;4.738;2023-02-07T11:28:03;8.70;98.70
54516;DHT22;40422;45.892;4.738;2023-02-07T11:30:33;8.80;99.20
54516;DHT22;40422;45.892;4.738;2023-02-07T11:33:09;9.00;98.60
54516;DHT22;40422;45.892;4.738;2023-02-07T11:35:38;9.30;97.70
54516;DHT22;40422;45.892;4.738;2023-02-07T11:38:13;9.60;97.50
54516;DHT22;40422;45.892;4.738;2023-02-07T11:43:18;9.80;95.40
54516;DHT22;40422;45.892;4.738;2023-02-07T11:45:50;9.90;95.40
54516;DHT22;40422;45.892;4.738;2023-02-07T11:48:23;9.60;94.90
54516;DHT22;40422;45.892;4.738;2023-02-07T11:50:57;9.70;95.70
54516;DHT22;40422;45.892;4.738;2023-02-07T11:53:43;9.80;95.20
54516;DHT22;40422;45.892;4.738;2023-02-07T11:56:28;10.10;95.00
54516;DHT22;40422;45.892;4.738;2023-02-07T11:58:55;10.40;94.10
54516;DHT22;40422;45.892;4.738;2023-02-07T12:01:25;10.30;93.60
54516;DHT22;40422;45.892;4.738;2023-02-07T12:03:57;10.30;93.80
54516;DHT22;40422;45.892;4.738;2023-02-07T12:06:32;10.40;93.80
54516;DHT22;40422;45.892;4.738;2023-02-07T12:09:00;10.40;93.80
54516;DHT22;40422;45.892;4.738;2023-02-07T12:11:32;10.60;94.30
54516;DHT22;40422;45.892;4.738;2023-02-07T12:14:26;10.90;93.10
54516;DHT22;40422;45.892;4.738;2023-02-07T12:16:57;11.20;92.60
54516;DHT22;40422;45.892;4.738;2023-02-07T12:19:28;11.30;92.60
54516;DHT22;40422;45.892;4.738;2023-02-07T12:22:11;11.40;90.50
54516;DHT22;40422;45.892;4.738;2023-02-07T12:24:52;11.50;89.40
54516;DHT22;40422;45.892;4.738;2023-02-07T12:27:22;11.50;89.20
54516;DHT22;40422;45.892;4.738;2023-02-07T12:30:13;11.70;88.20
54516;DHT22;40422;45.892;4.738;2023-02-07T12:32:54;11.80;89.60
54516;DHT22;40422;45.892;4.738;2023-02-07T12:35:48;11.90;88.80
54516;DHT22;40422;45.892;4.738;2023-02-07T12:38:23;12.10;89.80
54516;DHT22;40422;45.892;4.738;2023-02-07T12:41:03;12.40;86.20
54516;DHT22;40422;45.892;4.738;2023-02-07T12:43:41;12.60;86.20
54516;DHT22;40422;45.892;4.738;2023-02-07T12:46:34;12.90;85.50
54516;DHT22;40422;45.892;4.738;2023-02-07T12:49:19;12.90;85.30
54516;DHT22;40422;45.892;4.738;2023-02-07T13:00:10;13.40;80.50
54516;DHT22;40422;45.892;4.738;2023-02-07T13:03:01;13.20;81.00
54516;DHT22;40422;45.892;4.738;2023-02-07T13:11:28;13.00;78.90
54516;DHT22;40422;45.892;4.738;2023-02-07T13:22:35;12.50;82.30
54516;DHT22;40422;45.892;4.738;2023-02-07T13:25:05;12.60;82.10
54516;DHT22;40422;45.892;4.738;2023-02-07T13:27:33;12.70;82.10
54516;DHT22;40422;45.892;4.738;2023-02-07T13:30:01;13.00;80.90
54516;DHT22;40422;45.892;4.738;2023-02-07T13:32:27;13.20;80.10
54516;DHT22;40422;45.892;4.738;2023-02-07T13:35:16;13.10;79.00
54516;DHT22;40422;45.892;4.738;2023-02-07T13:37:56;12.90;79.40
54516;DHT22;40422;45.892;4.738;2023-02-07T13:43:17;12.40;80.10
54516;DHT22;40422;45.892;4.738;2023-02-07T13:46:05;12.60;79.90
54516;DHT22;40422;45.892;4.738;2023-02-07T13:51:49;12.90;77.00
54516;DHT22;40422;45.892;4.738;2023-02-07T13:54:28;13.10;76.80
54516;DHT22;40422;45.892;4.738;2023-02-07T13:57:00;13.00;76.90
54516;DHT22;40422;45.892;4.738;2023-02-07T14:02:29;12.70;75.60
54516;DHT22;40422;45.892;4.738;2023-02-07T14:05:06;12.90;76.40
54516;DHT22;40422;45.892;4.738;2023-02-07T14:07:34;13.20;75.70
54516;DHT22;40422;45.892;4.738;2023-02-07T14:10:02;13.40;73.90
54516;DHT22;40422;45.892;4.738;2023-02-07T14:12:30;13.70;74.60
54516;DHT22;40422;45.892;4.738;2023-02-07T14:34:20;13.30;75.50
54516;DHT22;40422;45.892;4.738;2023-02-07T14:36:46;13.20;73.30
54516;DHT22;40422;45.892;4.738;2023-02-07T14:41:40;13.20;72.90
54516;DHT22;40422;45.892;4.738;2023-02-07T14:44:22;13.10;71.60
54516;DHT22;40422;45.892;4.738;2023-02-07T14:46:51;13.10;72.20
54516;DHT22;40422;45.892;4.738;2023-02-07T14:51:53;12.80;72.20
54516;DHT22;40422;45.892;4.738;2023-02-07T14:54:26;12.90;72.50
54516;DHT22;40422;45.892;4.738;2023-02-07T15:02:29;13.00;71.90
54516;DHT22;40422;45.892;4.738;2023-02-07T15:04:56;12.50;74.00
54516;DHT22;40422;45.892;4.738;2023-02-07T15:07:22;12.40;73.70
54516;DHT22;40422;45.892;4.738;2023-02-07T15:09:47;12.60;75.30
54516;DHT22;40422;45.892;4.738;2023-02-07T15:12:23;12.70;74.60
54516;DHT22;40422;45.892;4.738;2023-02-07T15:14:52;13.10;74.40
54516;DHT22;40422;45.892;4.738;2023-02-07T15:17:20;13.20;73.50
54516;DHT22;40422;45.892;4.738;2023-02-07T15:19:46;13.10;71.80
54516;DHT22;40422;45.892;4.738;2023-02-07T15:22:23;12.80;72.10
54516;DHT22;40422;45.892;4.738;2023-02-07T15:24:50;12.30;72.40
54516;DHT22;40422;45.892;4.738;2023-02-07T15:27:20;12.00;73.30
54516;DHT22;40422;45.892;4.738;2023-02-07T15:29:58;11.90;73.70
54516;DHT22;40422;45.892;4.738;2023-02-07T15:32:27;11.70;74.20
54516;DHT22;40422;45.892;4.738;2023-02-07T15:34:56;11.70;74.00
54516;DHT22;40422;45.892;4.738;2023-02-07T15:37:24;11.60;74.20
54516;DHT22;40422;45.892;4.738;2023-02-07T15:39:55;11.40;73.80
54516;DHT22;40422;45.892;4.738;2023-02-07T15:42:21;11.40;74.80
54516;DHT22;40422;45.892;4.738;2023-02-07T15:44:52;11.60;73.20
54516;DHT22;40422;45.892;4.738;2023-02-07T15:47:31;11.70;74.80
54516;DHT22;40422;45.892;4.738;2023-02-07T15:52:31;11.70;73.30
54516;DHT22;40422;45.892;4.738;2023-02-07T15:54:58;11.60;73.00
54516;DHT22;40422;45.892;4.738;2023-02-07T15:57:29;11.50;73.10
54516;DHT22;40422;45.892;4.738;2023-02-07T16:00:05;11.40;74.00
54516;DHT22;40422;45.892;4.738;2023-02-07T16:02:34;11.20;74.10
54516;DHT22;40422;45.892;4.738;2023-02-07T16:07:48;11.00;75.30
54516;DHT22;40422;45.892;4.738;2023-02-07T16:12:44;10.70;76.20
54516;DHT22;40422;45.892;4.738;2023-02-07T16:17:47;10.30;77.90
54516;DHT22;40422;45.892;4.738;2023-02-07T16:20:13;10.20;78.70
54516;DHT22;40422;45.892;4.738;2023-02-07T16:22:40;10.10;78.90
54516;DHT22;40422;45.892;4.738;2023-02-07T16:25:14;9.90;79.40
54516;DHT22;40422;45.892;4.738;2023-02-07T16:27:43;9.80;79.50
54516;DHT22;40422;45.892;4.738;2023-02-07T16:30:13;9.60;80.10
54516;DHT22;40422;45.892;4.738;2023-02-07T16:32:39;9.40;79.60
54516;DHT22;40422;45.892;4.738;2023-02-07T16:35:16;9.20;80.30
54516;DHT22;40422;45.892;4.738;2023-02-07T16:37:42;9.00;80.60
54516;DHT22;40422;45.892;4.738;2023-02-07T16:40:11;8.90;81.00
54516;DHT22;40422;45.892;4.738;2023-02-07T16:42:37;8.70;80.30
54516;DHT22;40422;45.892;4.738;2023-02-07T16:45:03;8.60;81.20
54516;DHT22;40422;45.892;4.738;2023-02-07T16:47:29;8.50;81.10
54516;DHT22;40422;45.892;4.738;2023-02-07T16:49:55;8.40;81.70
54516;DHT22;40422;45.892;4.738;2023-02-07T16:52:22;8.20;82.10
54516;DHT22;40422;45.892;4.738;2023-02-07T16:54:47;8.00;82.20
54516;DHT22;40422;45.892;4.738;2023-02-07T16:57:13;7.90;82.70
54516;DHT22;40422;45.892;4.738;2023-02-07T16:59:39;7.80;83.50
54516;DHT22;40422;45.892;4.738;2023-02-07T17:02:12;7.70;83.90
54516;DHT22;40422;45.892;4.738;2023-02-07T17:04:38;7.60;84.20
54516;DHT22;40422;45.892;4.738;2023-02-07T17:07:04;7.50;85.00
54516;DHT22;40422;45.892;4.738;2023-02-07T17:09:29;7.40;85.10
54516;DHT22;40422;45.892;4.738;2023-02-07T17:11:55;7.30;85.40
54516;DHT22;40422;45.892;4.738;2023-02-07T17:14:21;7.20;85.90
54516;DHT22;40422;45.892;4.738;2023-02-07T17:16:46;7.10;86.40
54516;DHT22;40422;45.892;4.738;2023-02-07T17:19:17;7.00;86.80
54516;DHT22;40422;45.892;4.738;2023-02-07T17:21:44;6.90;88.30
54516;DHT22;40422;45.892;4.738;2023-02-07T17:24:10;6.80;88.70
54516;DHT22;40422;45.892;4.738;2023-02-07T17:26:37;6.60;89.20
54516;DHT22;40422;45.892;4.738;2023-02-07T17:29:04;6.50;89.20
54516;DHT22;40422;45.892;4.738;2023-02-07T17:31:30;6.50;89.40
54516;DHT22;40422;45.892;4.738;2023-02-07T17:33:56;6.40;90.00
54516;DHT22;40422;45.892;4.738;2023-02-07T17:36:23;6.20;90.10
54516;DHT22;40422;45.892;4.738;2023-02-07T17:38:49;6.10;90.40
54516;DHT22;40422;45.892;4.738;2023-02-07T17:41:16;6.00;90.60
54516;DHT22;40422;45.892;4.738;2023-02-07T17:43:42;5.90;91.40
54516;DHT22;40422;45.892;4.738;2023-02-07T17:46:19;5.80;91.40
54516;DHT22;40422;45.892;4.738;2023-02-07T17:48:45;5.70;91.70
54516;DHT22;40422;45.892;4.738;2023-02-07T17:51:14;5.60;92.20
54516;DHT22;40422;45.892;4.738;2023-02-07T17:53:40;5.50;92.60
54516;DHT22;40422;45.892;4.738;2023-02-07T17:56:06;5.40;93.00
54516;DHT22;40422;45.892;4.738;2023-02-07T17:58:32;5.30;93.50
54516;DHT22;40422;45.892;4.738;2023-02-07T18:01:03;5.20;94.00
54516;DHT22;40422;45.892;4.738;2023-02-07T18:03:29;5.10;94.40
54516;DHT22;40422;45.892;4.738;2023-02-07T18:05:54;5.00;94.90
54516;DHT22;40422;45.892;4.738;2023-02-07T18:08:22;4.80;95.20
54516;DHT22;40422;45.892;4.738;2023-02-07T18:10:48;4.70;95.50
54516;DHT22;40422;45.892;4.738;2023-02-07T18:13:13;4.60;95.80
54516;DHT22;40422;45.892;4.738;2023-02-07T18:15:39;4.50;96.50
54516;DHT22;40422;45.892;4.738;2023-02-07T18:18:05;4.50;96.80
54516;DHT22;40422;45.892;4.738;2023-02-07T18:20:32;4.40;97.20
54516;DHT22;40422;45.892;4.738;2023-02-07T18:22:59;4.40;97.80
54516;DHT22;40422;45.892;4.738;2023-02-07T18:25:27;4.30;98.40
54516;DHT22;40422;45.892;4.738;2023-02-07T18:27:54;4.20;99.40
54516;DHT22;40422;45.892;4.738;2023-02-07T18:30:22;4.10;99.90
54516;DHT22;40422;45.892;4.738;2023-02-07T18:32:48;4.00;99.90
54516;DHT22;40422;45.892;4.738;2023-02-07T18:35:14;3.90;99.90
54516;DHT22;40422;45.892;4.738;2023-02-07T18:37:40;3.80;99.90
54516;DHT22;40422;45.892;4.738;2023-02-07T18:40:06;3.70;99.90
54516;DHT22;40422;45.892;4.738;2023-02-07T18:42:32;3.70;99.90
54516;DHT22;40422;45.892;4.738;2023-02-07T18:44:58;3.60;99.90
54516;DHT22;40422;45.892;4.738;2023-02-07T18:47:23;3.60;99.90
54516;DHT22;40422;45.892;4.738;2023-02-07T18:49:49;3.50;99.90
54516;DHT22;40422;45.892;4.738;2023-02-07T18:52:15;3.40;99.90
54516;DHT22;40422;45.892;4.738;2023-02-07T18:54:41;3.40;99.90
54516;DHT22;40422;45.892;4.738;2023-02-07T18:57:09;3.30;99.90
54516;DHT22;40422;45.892;4.738;2023-02-07T18:59:36;3.20;99.90
54516;DHT22;40422;45.892;4.738;2023-02-07T19:02:03;3.20;99.90
54516;DHT22;40422;45.892;4.738;2023-02-07T19:04:29;3.10;99.90
54516;DHT22;40422;45.892;4.738;2023-02-07T19:06:55;3.00;99.90
54516;DHT22;40422;45.892;4.738;2023-02-07T19:09:21;3.00;99.90
54516;DHT22;40422;45.892;4.738;2023-02-07T19:11:52;2.90;99.90
54516;DHT22;40422;45.892;4.738;2023-02-07T19:14:21;2.90;99.90
54516;DHT22;40422;45.892;4.738;2023-02-07T19:16:48;2.80;99.90
54516;DHT22;40422;45.892;4.738;2023-02-07T19:19:16;2.80;99.90
54516;DHT22;40422;45.892;4.738;2023-02-07T19:21:41;2.70;99.90
54516;DHT22;40422;45.892;4.738;2023-02-07T19:24:09;2.70;99.90
54516;DHT22;40422;45.892;4.738;2023-02-07T19:26:37;2.60;99.90
54516;DHT22;40422;45.892;4.738;2023-02-07T19:29:02;2.60;99.90
54516;DHT22;40422;45.892;4.738;2023-02-07T19:31:30;2.50;99.90
54516;DHT22;40422;45.892;4.738;2023-02-07T19:33:57;2.50;99.90
54516;DHT22;40422;45.892;4.738;2023-02-07T19:36:25;2.40;99.90
54516;DHT22;40422;45.892;4.738;2023-02-07T19:38:52;2.40;99.90
54516;DHT22;40422;45.892;4.738;2023-02-07T19:41:22;2.30;99.90
54516;DHT22;40422;45.892;4.738;2023-02-07T19:43:49;2.30;99.90
54516;DHT22;40422;45.892;4.738;2023-02-07T19:46:16;2.30;99.90
54516;DHT22;40422;45.892;4.738;2023-02-07T19:48:42;2.30;99.90
54516;DHT22;40422;45.892;4.738;2023-02-07T19:51:14;2.20;99.90
54516;DHT22;40422;45.892;4.738;2023-02-07T19:53:42;2.10;99.90
54516;DHT22;40422;45.892;4.738;2023-02-07T19:56:08;2.10;99.90
54516;DHT22;40422;45.892;4.738;2023-02-07T19:58:38;2.10;99.90
54516;DHT22;40422;45.892;4.738;2023-02-07T20:01:04;2.00;99.90
54516;DHT22;40422;45.892;4.738;2023-02-07T20:03:29;2.00;99.90
54516;DHT22;40422;45.892;4.738;2023-02-07T20:05:58;1.90;99.90
54516;DHT22;40422;45.892;4.738;2023-02-07T20:08:24;1.90;99.90
54516;DHT22;40422;45.892;4.738;2023-02-07T20:10:50;1.90;99.90
54516;DHT22;40422;45.892;4.738;2023-02-07T20:13:15;1.90;99.90
54516;DHT22;40422;45.892;4.738;2023-02-07T20:15:43;1.80;99.90
54516;DHT22;40422;45.892;4.738;2023-02-07T20:18:10;1.80;99.90
54516;DHT22;40422;45.892;4.738;2023-02-07T20:20:41;1.70;99.90
54516;DHT22;40422;45.892;4.738;2023-02-07T20:23:07;1.70;99.90
54516;DHT22;40422;45.892;4.738;2023-02-07T20:25:35;1.70;99.90
54516;DHT22;40422;45.892;4.738;2023-02-07T20:28:01;1.70;99.90
54516;DHT22;40422;45.892;4.738;2023-02-07T20:30:26;1.70;99.90
54516;DHT22;40422;45.892;4.738;2023-02-07T20:32:53;1.70;99.90
54516;DHT22;40422;45.892;4.738;2023-02-07T20:35:19;1.80;99.90
54516;DHT22;40422;45.892;4.738;2023-02-07T20:37:45;1.80;99.90
54516;DHT22;40422;45.892;4.738;2023-02-07T20:40:11;1.80;99.90
54516;DHT22;40422;45.892;4.738;2023-02-07T20:42:36;1.80;99.90
54516;DHT22;40422;45.892;4.738;2023-02-07T20:45:02;1.80;99.90
54516;DHT22;40422;45.892;4.738;2023-02-07T20:47:28;1.80;99.90
54516;DHT22;40422;45.892;4.738;2023-02-07T20:49:54;1.90;99.90
54516;DHT22;40422;45.892;4.738;2023-02-07T20:52:22;1.90;99.90
54516;DHT22;40422;45.892;4.738;2023-02-07T20:54:47;1.90;99.90
54516;DHT22;40422;45.892;4.738;2023-02-07T20:57:13;1.80;99.90
54516;DHT22;40422;45.892;4.738;2023-02-07T20:59:39;1.80;99.90
